Minerva Concert — SVWC — position and weather

sailwx.info

Track history (hours):
 
Tides and Currents Weather Stations Pressure Air Temp Water Temp Dewpoint Dewpoint Depression Visibility Wind Speed Wind Dir Waves Ship Positions

Minerva Concert

Last reported at 2015-May-04 13:33 UTC. Time now 2015-May-04 14:04 UTC.
Position N 43°22' E 004°57'.

Length 241 m; draft 14.2 m.

Type: Tanker. MMSI: 240110000.

Date/timePositionNaut miles runAvg speedWind from/ knotsBaromVisibWave heightAir tempDewpointWater temp
2015-May-04 13:33N 43°22' E 004°57'0 0.0
2015-May-04 12:33N 43°22' E 004°57'0 0.2
2015-May-04 11:30N 43°22' E 004°57'0 0.1
2015-May-04 10:33N 43°22' E 004°57'0 0.0
2015-May-04 09:33N 43°22' E 004°57'0 0.0
2015-May-04 08:33N 43°22' E 004°57'0 0.0
2015-May-04 07:33N 43°22' E 004°57'0 0.0
2015-May-04 06:30N 43°22' E 004°57'0 0.0
2015-May-04 05:30N 43°22' E 004°57'0 0.0
2015-May-04 04:27N 43°22' E 004°57'0 0.0
2015-May-04 03:30N 43°22' E 004°57'0 0.1
2015-May-04 02:33N 43°22' E 004°57'0 0.0
2015-May-04 01:33N 43°22' E 004°57'0 0.0
2015-May-04 00:33N 43°22' E 004°57'0 0.0
2015-May-03 23:33N 43°22' E 004°57'0 0.0
2015-May-03 22:30N 43°22' E 004°57'0 0.1
2015-May-03 21:33N 43°22' E 004°57'0 0.0
2015-May-03 20:33N 43°22' E 004°57'0 0.0
2015-May-03 19:33N 43°22' E 004°57'0 0.0
2015-May-03 18:33N 43°22' E 004°57'0 0.0
2015-May-03 17:33N 43°22' E 004°57'0 0.1
2015-May-03 16:33N 43°22' E 004°57'0 0.1
2015-May-03 15:33N 43°22' E 004°57'0 0.0
2015-May-03 14:33N 43°22' E 004°57'0 0.0
2015-May-03 13:34N 43°22' E 004°57'0 0.0
2015-May-03 12:33N 43°22' E 004°57'0 0.0
2015-May-03 11:33N 43°22' E 004°57'0 0.1
2015-May-03 10:33N 43°22' E 004°57'0 0.0
2015-May-03 09:33N 43°22' E 004°57'1 0.5
2015-May-03 08:33N 43°21' E 004°57'8 7.6
2015-May-03 07:33N 43°14' E 005°02'11211.2
2015-May-02 21:33N 41°36' E 003°50'1212.3
2015-May-02 20:33N 41°26' E 003°39'1212.3
2015-May-02 19:33N 41°17' E 003°29'1212.1
2015-May-02 18:33N 41°08' E 003°18'1212.1
2015-May-02 17:33N 40°59' E 003°08'1211.7
2015-May-02 16:33N 40°50' E 002°57'1211.7
2015-May-02 15:33N 40°41' E 002°47'1211.8
2015-May-02 14:33N 40°32' E 002°37'1211.8
2015-May-02 13:33N 40°23' E 002°27'1111.3
2015-May-02 12:33N 40°15' E 002°17'1111.2
2015-May-02 11:34N 40°06' E 002°08'1111.1
2015-May-02 10:33N 39°58' E 001°58'1111.4
2015-May-02 09:33N 39°49' E 001°48'1211.9
2015-May-02 08:33N 39°40' E 001°38'1211.6
2015-May-02 07:33N 39°31' E 001°28'1111.2
2015-May-02 06:33N 39°23' E 001°18'1111.3
2015-May-02 05:33N 39°15' E 001°09'3711.1
2015-May-02 02:13N 38°45' E 000°41'911.3
2015-May-02 01:23N 38°35' E 000°39'1211.5
2015-May-02 00:22N 38°24' E 000°34'1011.9
2015-May-01 23:33N 38°15' E 000°30'1211.5
2015-May-01 22:33N 38°04' E 000°26'1111.4
2015-May-01 21:33N 37°53' E 000°22'1111.3
2015-May-01 20:33N 37°42' E 000°18'1111.4
2015-May-01 19:33N 37°32' E 000°13'1111.3
2015-May-01 18:33N 37°23' E 000°04'1211.9
2015-May-01 17:33N 37°16' W 000°08'1211.9
2015-May-01 16:33N 37°09' W 000°20'1212.2
2015-May-01 15:34N 37°02' W 000°33'1212.2
2015-May-01 14:33N 36°55' W 000°45'1212.2
2015-May-01 13:32N 36°48' W 000°58'1511.9
2015-May-01 12:18N 36°39' W 001°13'911.6
2015-May-01 11:33N 36°34' W 001°22'1211.6
2015-May-01 10:30N 36°27' W 001°34'1111.6
2015-May-01 09:33N 36°21' W 001°45'1111.5
2015-May-01 08:33N 36°15' W 001°57'1111.3
2015-May-01 07:33N 36°11' W 002°10'1111.4
2015-May-01 06:33N 36°09' W 002°24'1111.3
2015-May-01 05:33N 36°07' W 002°38'1110.9
2015-May-01 04:33N 36°06' W 002°51'1310.2
2015-May-01 03:14N 36°07' W 003°08'1110.5
2015-May-01 02:13N 36°05' W 003°21'910.3
2015-May-01 01:20N 36°05' W 003°32'7711.4
2015-Apr-30 18:33N 36°00' W 005°08'1211.7
2015-Apr-30 17:33N 35°59' W 005°22'  
Track history (hours):
 
Tides and Currents Weather Stations Pressure Air Temp Water Temp Dewpoint Dewpoint Depression Visibility Wind Speed Wind Dir Waves Ship Positions

Minerva Concert

Last reported at 2015-May-04 13:33 UTC. Time now 2015-May-04 14:04 UTC.
Position N 43°22' E 004°57'.

Length 241 m; draft 14.2 m.

Type: Tanker. MMSI: 240110000.

Date/timePositionNaut miles runAvg speedWind from/ knotsBaromVisibWave heightAir tempDewpointWater temp
2015-May-04 13:33N 43°22' E 004°57'0 0.0
2015-May-04 12:33N 43°22' E 004°57'0 0.2
2015-May-04 11:30N 43°22' E 004°57'0 0.1
2015-May-04 10:33N 43°22' E 004°57'0 0.0
2015-May-04 09:33N 43°22' E 004°57'0 0.0
2015-May-04 08:33N 43°22' E 004°57'0 0.0
2015-May-04 07:33N 43°22' E 004°57'0 0.0
2015-May-04 06:30N 43°22' E 004°57'0 0.0
2015-May-04 05:30N 43°22' E 004°57'0 0.0
2015-May-04 04:27N 43°22' E 004°57'0 0.0
2015-May-04 03:30N 43°22' E 004°57'0 0.1
2015-May-04 02:33N 43°22' E 004°57'0 0.0
2015-May-04 01:33N 43°22' E 004°57'0 0.0
2015-May-04 00:33N 43°22' E 004°57'0 0.0
2015-May-03 23:33N 43°22' E 004°57'0 0.0
2015-May-03 22:30N 43°22' E 004°57'0 0.1
2015-May-03 21:33N 43°22' E 004°57'0 0.0
2015-May-03 20:33N 43°22' E 004°57'0 0.0
2015-May-03 19:33N 43°22' E 004°57'0 0.0
2015-May-03 18:33N 43°22' E 004°57'0 0.0
2015-May-03 17:33N 43°22' E 004°57'0 0.1
2015-May-03 16:33N 43°22' E 004°57'0 0.1
2015-May-03 15:33N 43°22' E 004°57'0 0.0
2015-May-03 14:33N 43°22' E 004°57'0 0.0
2015-May-03 13:34N 43°22' E 004°57'0 0.0
2015-May-03 12:33N 43°22' E 004°57'0 0.0
2015-May-03 11:33N 43°22' E 004°57'0 0.1
2015-May-03 10:33N 43°22' E 004°57'0 0.0
2015-May-03 09:33N 43°22' E 004°57'1 0.5
2015-May-03 08:33N 43°21' E 004°57'8 7.6
2015-May-03 07:33N 43°14' E 005°02'11211.2
2015-May-02 21:33N 41°36' E 003°50'1212.3
2015-May-02 20:33N 41°26' E 003°39'1212.3
2015-May-02 19:33N 41°17' E 003°29'1212.1
2015-May-02 18:33N 41°08' E 003°18'1212.1
2015-May-02 17:33N 40°59' E 003°08'1211.7
2015-May-02 16:33N 40°50' E 002°57'1211.7
2015-May-02 15:33N 40°41' E 002°47'1211.8
2015-May-02 14:33N 40°32' E 002°37'1211.8
2015-May-02 13:33N 40°23' E 002°27'1111.3
2015-May-02 12:33N 40°15' E 002°17'1111.2
2015-May-02 11:34N 40°06' E 002°08'1111.1
2015-May-02 10:33N 39°58' E 001°58'1111.4
2015-May-02 09:33N 39°49' E 001°48'1211.9
2015-May-02 08:33N 39°40' E 001°38'1211.6
2015-May-02 07:33N 39°31' E 001°28'1111.2
2015-May-02 06:33N 39°23' E 001°18'1111.3
2015-May-02 05:33N 39°15' E 001°09'3711.1
2015-May-02 02:13N 38°45' E 000°41'911.3
2015-May-02 01:23N 38°35' E 000°39'1211.5
2015-May-02 00:22N 38°24' E 000°34'1011.9
2015-May-01 23:33N 38°15' E 000°30'1211.5
2015-May-01 22:33N 38°04' E 000°26'1111.4
2015-May-01 21:33N 37°53' E 000°22'1111.3
2015-May-01 20:33N 37°42' E 000°18'1111.4
2015-May-01 19:33N 37°32' E 000°13'1111.3
2015-May-01 18:33N 37°23' E 000°04'1211.9
2015-May-01 17:33N 37°16' W 000°08'1211.9
2015-May-01 16:33N 37°09' W 000°20'1212.2
2015-May-01 15:34N 37°02' W 000°33'1212.2
2015-May-01 14:33N 36°55' W 000°45'1212.2
2015-May-01 13:32N 36°48' W 000°58'1511.9
2015-May-01 12:18N 36°39' W 001°13'911.6
2015-May-01 11:33N 36°34' W 001°22'1211.6
2015-May-01 10:30N 36°27' W 001°34'1111.6
2015-May-01 09:33N 36°21' W 001°45'1111.5
2015-May-01 08:33N 36°15' W 001°57'1111.3
2015-May-01 07:33N 36°11' W 002°10'1111.4
2015-May-01 06:33N 36°09' W 002°24'1111.3
2015-May-01 05:33N 36°07' W 002°38'1110.9
2015-May-01 04:33N 36°06' W 002°51'1310.2
2015-May-01 03:14N 36°07' W 003°08'1110.5
2015-May-01 02:13N 36°05' W 003°21'910.3
2015-May-01 01:20N 36°05' W 003°32'7711.4
2015-Apr-30 18:33N 36°00' W 005°08'1211.7
2015-Apr-30 17:33N 35°59' W 005°22'  

Dump ship's entire track history